sensor_id;sensor_type;location;lat;lon;timestamp;temperature;humidity
48043;DHT22;33988;47.992;8.820;2022-11-20T00:01:33;7.60;65.50
48043;DHT22;33988;47.992;8.820;2022-11-20T00:04:00;7.60;65.40
48043;DHT22;33988;47.992;8.820;2022-11-20T00:06:32;7.60;65.40
48043;DHT22;33988;47.992;8.820;2022-11-20T00:09:01;7.60;65.60
48043;DHT22;33988;47.992;8.820;2022-11-20T00:11:29;7.60;65.30
48043;DHT22;33988;47.992;8.820;2022-11-20T00:14:00;7.50;65.20
48043;DHT22;33988;47.992;8.820;2022-11-20T00:16:30;7.50;65.20
48043;DHT22;33988;47.992;8.820;2022-11-20T00:19:00;7.50;65.20
48043;DHT22;33988;47.992;8.820;2022-11-20T00:21:28;7.50;65.30
48043;DHT22;33988;47.992;8.820;2022-11-20T00:23:57;7.50;65.40
48043;DHT22;33988;47.992;8.820;2022-11-20T00:26:26;7.40;65.50
48043;DHT22;33988;47.992;8.820;2022-11-20T00:28:55;7.40;65.60
48043;DHT22;33988;47.992;8.820;2022-11-20T00:31:24;7.40;65.70
48043;DHT22;33988;47.992;8.820;2022-11-20T00:33:54;7.40;65.70
48043;DHT22;33988;47.992;8.820;2022-11-20T00:36:26;7.30;65.60
48043;DHT22;33988;47.992;8.820;2022-11-20T00:39:01;7.30;65.70
48043;DHT22;33988;47.992;8.820;2022-11-20T00:41:29;7.30;65.70
48043;DHT22;33988;47.992;8.820;2022-11-20T00:43:58;7.30;65.60
48043;DHT22;33988;47.992;8.820;2022-11-20T00:46:27;7.30;65.60
48043;DHT22;33988;47.992;8.820;2022-11-20T00:48:54;7.20;65.60
48043;DHT22;33988;47.992;8.820;2022-11-20T00:51:24;7.20;65.60
48043;DHT22;33988;47.992;8.820;2022-11-20T00:53:55;7.20;65.60
48043;DHT22;33988;47.992;8.820;2022-11-20T00:56:26;7.20;65.50
48043;DHT22;33988;47.992;8.820;2022-11-20T00:58:53;7.20;65.50
48043;DHT22;33988;47.992;8.820;2022-11-20T01:01:23;7.10;65.40
48043;DHT22;33988;47.992;8.820;2022-11-20T01:03:54;7.10;65.40
48043;DHT22;33988;47.992;8.820;2022-11-20T01:06:28;7.10;65.40
48043;DHT22;33988;47.992;8.820;2022-11-20T01:09:09;7.10;65.40
48043;DHT22;33988;47.992;8.820;2022-11-20T01:11:40;7.10;65.40
48043;DHT22;33988;47.992;8.820;2022-11-20T01:14:17;7.10;65.40
48043;DHT22;33988;47.992;8.820;2022-11-20T01:16:49;7.10;65.50
48043;DHT22;33988;47.992;8.820;2022-11-20T01:19:21;7.00;65.40
48043;DHT22;33988;47.992;8.820;2022-11-20T01:21:52;7.00;65.50
48043;DHT22;33988;47.992;8.820;2022-11-20T01:24:21;7.00;65.60
48043;DHT22;33988;47.992;8.820;2022-11-20T01:26:50;7.00;65.60
48043;DHT22;33988;47.992;8.820;2022-11-20T01:29:20;7.10;65.70
48043;DHT22;33988;47.992;8.820;2022-11-20T01:31:51;7.00;65.70
48043;DHT22;33988;47.992;8.820;2022-11-20T01:34:20;7.00;65.80
48043;DHT22;33988;47.992;8.820;2022-11-20T01:36:49;7.00;65.80
48043;DHT22;33988;47.992;8.820;2022-11-20T01:39:19;7.10;65.90
48043;DHT22;33988;47.992;8.820;2022-11-20T01:41:49;7.10;65.90
48043;DHT22;33988;47.992;8.820;2022-11-20T01:47:44;7.00;66.00
48043;DHT22;33988;47.992;8.820;2022-11-20T01:50:17;7.00;65.90
48043;DHT22;33988;47.992;8.820;2022-11-20T01:53:05;7.10;66.00
48043;DHT22;33988;47.992;8.820;2022-11-20T01:55:43;7.10;66.00
48043;DHT22;33988;47.992;8.820;2022-11-20T01:58:13;7.10;66.10
48043;DHT22;33988;47.992;8.820;2022-11-20T02:00:40;7.10;66.10
48043;DHT22;33988;47.992;8.820;2022-11-20T02:03:13;7.20;66.20
48043;DHT22;33988;47.992;8.820;2022-11-20T02:06:07;7.20;66.20
48043;DHT22;33988;47.992;8.820;2022-11-20T02:08:36;7.10;66.20
48043;DHT22;33988;47.992;8.820;2022-11-20T02:11:10;7.20;66.20
48043;DHT22;33988;47.992;8.820;2022-11-20T02:13:39;7.20;66.30
48043;DHT22;33988;47.992;8.820;2022-11-20T02:19:01;7.30;66.40
48043;DHT22;33988;47.992;8.820;2022-11-20T02:26:54;7.40;66.30
48043;DHT22;33988;47.992;8.820;2022-11-20T02:29:50;7.40;66.40
48043;DHT22;33988;47.992;8.820;2022-11-20T02:32:29;7.40;66.40
48043;DHT22;33988;47.992;8.820;2022-11-20T02:34:57;7.40;66.40
48043;DHT22;33988;47.992;8.820;2022-11-20T02:37:32;7.40;66.30
48043;DHT22;33988;47.992;8.820;2022-11-20T02:40:02;7.50;66.40
48043;DHT22;33988;47.992;8.820;2022-11-20T02:42:30;7.50;66.40
48043;DHT22;33988;47.992;8.820;2022-11-20T02:44:58;7.50;66.40
48043;DHT22;33988;47.992;8.820;2022-11-20T02:47:26;7.50;66.30
48043;DHT22;33988;47.992;8.820;2022-11-20T02:49:55;7.50;66.50
48043;DHT22;33988;47.992;8.820;2022-11-20T02:52:25;7.60;66.50
48043;DHT22;33988;47.992;8.820;2022-11-20T02:54:52;7.60;66.50
48043;DHT22;33988;47.992;8.820;2022-11-20T02:57:24;7.60;66.40
48043;DHT22;33988;47.992;8.820;2022-11-20T02:59:51;7.60;66.40
48043;DHT22;33988;47.992;8.820;2022-11-20T03:02:19;7.70;66.50
48043;DHT22;33988;47.992;8.820;2022-11-20T03:04:47;7.70;66.50
48043;DHT22;33988;47.992;8.820;2022-11-20T03:07:18;7.70;66.50
48043;DHT22;33988;47.992;8.820;2022-11-20T03:09:48;7.70;66.30
48043;DHT22;33988;47.992;8.820;2022-11-20T03:12:17;7.80;66.30
48043;DHT22;33988;47.992;8.820;2022-11-20T03:14:47;7.70;67.00
48043;DHT22;33988;47.992;8.820;2022-11-20T03:17:18;7.80;66.10
48043;DHT22;33988;47.992;8.820;2022-11-20T03:19:48;7.80;66.10
48043;DHT22;33988;47.992;8.820;2022-11-20T03:22:17;7.70;66.00
48043;DHT22;33988;47.992;8.820;2022-11-20T03:24:44;7.70;66.00
48043;DHT22;33988;47.992;8.820;2022-11-20T03:27:11;7.70;66.00
48043;DHT22;33988;47.992;8.820;2022-11-20T03:29:40;7.70;66.00
48043;DHT22;33988;47.992;8.820;2022-11-20T03:32:10;7.70;66.00
48043;DHT22;33988;47.992;8.820;2022-11-20T03:34:36;7.70;66.00
48043;DHT22;33988;47.992;8.820;2022-11-20T03:37:06;7.70;65.90
48043;DHT22;33988;47.992;8.820;2022-11-20T03:39:36;7.70;65.90
48043;DHT22;33988;47.992;8.820;2022-11-20T03:42:02;7.70;65.80
48043;DHT22;33988;47.992;8.820;2022-11-20T03:44:49;7.70;65.80
48043;DHT22;33988;47.992;8.820;2022-11-20T03:47:16;7.60;65.70
48043;DHT22;33988;47.992;8.820;2022-11-20T03:49:43;7.60;65.70
48043;DHT22;33988;47.992;8.820;2022-11-20T03:52:15;7.60;65.70
48043;DHT22;33988;47.992;8.820;2022-11-20T03:54:42;7.60;65.80
48043;DHT22;33988;47.992;8.820;2022-11-20T03:57:11;7.60;65.90
48043;DHT22;33988;47.992;8.820;2022-11-20T03:59:38;7.60;65.90
48043;DHT22;33988;47.992;8.820;2022-11-20T04:02:05;7.60;66.00
48043;DHT22;33988;47.992;8.820;2022-11-20T04:04:34;7.60;65.90
48043;DHT22;33988;47.992;8.820;2022-11-20T04:07:04;7.60;65.90
48043;DHT22;33988;47.992;8.820;2022-11-20T04:09:31;7.50;65.80
48043;DHT22;33988;47.992;8.820;2022-11-20T04:11:58;7.50;65.90
48043;DHT22;33988;47.992;8.820;2022-11-20T04:14:27;7.50;65.80
48043;DHT22;33988;47.992;8.820;2022-11-20T04:16:56;7.50;65.80
48043;DHT22;33988;47.992;8.820;2022-11-20T04:19:23;7.30;65.90
48043;DHT22;33988;47.992;8.820;2022-11-20T04:21:52;7.50;65.90
48043;DHT22;33988;47.992;8.820;2022-11-20T04:24:19;7.50;65.80
48043;DHT22;33988;47.992;8.820;2022-11-20T04:26:48;7.40;65.70
48043;DHT22;33988;47.992;8.820;2022-11-20T04:29:18;7.40;65.80
48043;DHT22;33988;47.992;8.820;2022-11-20T04:31:45;7.40;65.70
48043;DHT22;33988;47.992;8.820;2022-11-20T04:34:12;7.40;65.80
48043;DHT22;33988;47.992;8.820;2022-11-20T04:36:44;7.40;65.90
48043;DHT22;33988;47.992;8.820;2022-11-20T04:39:14;7.40;66.00
48043;DHT22;33988;47.992;8.820;2022-11-20T04:41:44;7.40;66.10
48043;DHT22;33988;47.992;8.820;2022-11-20T04:44:11;7.40;66.20
48043;DHT22;33988;47.992;8.820;2022-11-20T04:46:42;7.40;66.30
48043;DHT22;33988;47.992;8.820;2022-11-20T04:49:13;7.40;66.30
48043;DHT22;33988;47.992;8.820;2022-11-20T04:51:40;7.40;66.40
48043;DHT22;33988;47.992;8.820;2022-11-20T04:54:12;7.40;66.50
48043;DHT22;33988;47.992;8.820;2022-11-20T04:56:42;7.40;66.50
48043;DHT22;33988;47.992;8.820;2022-11-20T04:59:10;7.40;66.50
48043;DHT22;33988;47.992;8.820;2022-11-20T05:01:37;7.50;66.60
48043;DHT22;33988;47.992;8.820;2022-11-20T05:04:04;7.50;66.50
48043;DHT22;33988;47.992;8.820;2022-11-20T05:06:32;7.50;66.60
48043;DHT22;33988;47.992;8.820;2022-11-20T05:08:59;7.50;66.60
48043;DHT22;33988;47.992;8.820;2022-11-20T05:11:28;7.50;66.60
48043;DHT22;33988;47.992;8.820;2022-11-20T05:13:55;7.50;66.70
48043;DHT22;33988;47.992;8.820;2022-11-20T05:16:27;7.60;66.80
48043;DHT22;33988;47.992;8.820;2022-11-20T05:18:54;7.60;66.80
48043;DHT22;33988;47.992;8.820;2022-11-20T05:21:22;7.60;66.80
48043;DHT22;33988;47.992;8.820;2022-11-20T05:23:49;7.60;66.80
48043;DHT22;33988;47.992;8.820;2022-11-20T05:26:21;7.60;66.70
48043;DHT22;33988;47.992;8.820;2022-11-20T05:28:51;7.70;66.70
48043;DHT22;33988;47.992;8.820;2022-11-20T05:31:20;7.70;66.60
48043;DHT22;33988;47.992;8.820;2022-11-20T05:33:54;7.70;66.60
48043;DHT22;33988;47.992;8.820;2022-11-20T05:36:22;7.70;66.60
48043;DHT22;33988;47.992;8.820;2022-11-20T05:38:49;7.70;66.60
48043;DHT22;33988;47.992;8.820;2022-11-20T05:41:20;7.70;66.60
48043;DHT22;33988;47.992;8.820;2022-11-20T05:43:48;7.80;66.70
48043;DHT22;33988;47.992;8.820;2022-11-20T05:46:18;7.80;66.70
48043;DHT22;33988;47.992;8.820;2022-11-20T05:48:54;7.70;66.60
48043;DHT22;33988;47.992;8.820;2022-11-20T05:51:23;7.80;66.60
48043;DHT22;33988;47.992;8.820;2022-11-20T05:53:51;7.80;66.60
48043;DHT22;33988;47.992;8.820;2022-11-20T05:56:19;7.80;66.50
48043;DHT22;33988;47.992;8.820;2022-11-20T05:58:50;7.80;66.50
48043;DHT22;33988;47.992;8.820;2022-11-20T06:01:19;7.70;66.40
48043;DHT22;33988;47.992;8.820;2022-11-20T06:03:51;7.70;66.40
48043;DHT22;33988;47.992;8.820;2022-11-20T06:06:22;7.70;66.40
48043;DHT22;33988;47.992;8.820;2022-11-20T06:08:49;7.70;66.40
48043;DHT22;33988;47.992;8.820;2022-11-20T06:11:16;7.70;66.40
48043;DHT22;33988;47.992;8.820;2022-11-20T06:13:46;7.70;66.40
48043;DHT22;33988;47.992;8.820;2022-11-20T06:16:15;7.70;66.40
48043;DHT22;33988;47.992;8.820;2022-11-20T06:18:44;7.70;66.40
48043;DHT22;33988;47.992;8.820;2022-11-20T06:21:21;7.60;66.40
48043;DHT22;33988;47.992;8.820;2022-11-20T06:23:52;7.60;66.40
48043;DHT22;33988;47.992;8.820;2022-11-20T06:26:25;7.70;66.50
48043;DHT22;33988;47.992;8.820;2022-11-20T06:28:54;7.60;66.50
48043;DHT22;33988;47.992;8.820;2022-11-20T06:31:24;7.60;66.50
48043;DHT22;33988;47.992;8.820;2022-11-20T06:33:52;7.70;66.60
48043;DHT22;33988;47.992;8.820;2022-11-20T06:36:21;7.70;66.70
48043;DHT22;33988;47.992;8.820;2022-11-20T06:38:49;7.70;66.70
48043;DHT22;33988;47.992;8.820;2022-11-20T06:41:21;7.70;66.70
48043;DHT22;33988;47.992;8.820;2022-11-20T06:43:51;7.70;66.80
48043;DHT22;33988;47.992;8.820;2022-11-20T06:46:19;7.70;66.80
48043;DHT22;33988;47.992;8.820;2022-11-20T06:48:49;7.70;66.90
48043;DHT22;33988;47.992;8.820;2022-11-20T06:51:18;7.70;66.90
48043;DHT22;33988;47.992;8.820;2022-11-20T06:53:48;7.80;67.00
48043;DHT22;33988;47.992;8.820;2022-11-20T06:56:15;7.80;67.10
48043;DHT22;33988;47.992;8.820;2022-11-20T06:58:42;7.80;67.10
48043;DHT22;33988;47.992;8.820;2022-11-20T07:01:11;7.80;67.10
48043;DHT22;33988;47.992;8.820;2022-11-20T07:03:41;7.80;67.10
48043;DHT22;33988;47.992;8.820;2022-11-20T07:06:09;7.80;67.20
48043;DHT22;33988;47.992;8.820;2022-11-20T07:08:37;7.90;67.30
48043;DHT22;33988;47.992;8.820;2022-11-20T07:11:06;7.90;67.40
48043;DHT22;33988;47.992;8.820;2022-11-20T07:13:33;7.90;67.50
48043;DHT22;33988;47.992;8.820;2022-11-20T07:16:06;8.00;67.50
48043;DHT22;33988;47.992;8.820;2022-11-20T07:18:34;8.00;67.60
48043;DHT22;33988;47.992;8.820;2022-11-20T07:21:07;8.10;67.70
48043;DHT22;33988;47.992;8.820;2022-11-20T07:23:36;8.10;67.70
48043;DHT22;33988;47.992;8.820;2022-11-20T07:26:05;8.10;67.70
48043;DHT22;33988;47.992;8.820;2022-11-20T07:28:38;8.20;67.70
48043;DHT22;33988;47.992;8.820;2022-11-20T07:31:05;8.20;67.80
48043;DHT22;33988;47.992;8.820;2022-11-20T07:33:41;8.30;67.80
48043;DHT22;33988;47.992;8.820;2022-11-20T07:36:08;8.30;67.80
48043;DHT22;33988;47.992;8.820;2022-11-20T07:38:36;8.30;67.80
48043;DHT22;33988;47.992;8.820;2022-11-20T07:41:04;8.40;67.80
48043;DHT22;33988;47.992;8.820;2022-11-20T07:43:31;8.40;67.70
48043;DHT22;33988;47.992;8.820;2022-11-20T07:46:04;8.50;67.70
48043;DHT22;33988;47.992;8.820;2022-11-20T07:48:33;8.50;67.70
48043;DHT22;33988;47.992;8.820;2022-11-20T07:51:00;8.50;67.80
48043;DHT22;33988;47.992;8.820;2022-11-20T07:53:27;8.60;67.80
48043;DHT22;33988;47.992;8.820;2022-11-20T07:55:56;8.60;67.80
48043;DHT22;33988;47.992;8.820;2022-11-20T07:58:29;8.60;67.80
48043;DHT22;33988;47.992;8.820;2022-11-20T08:00:56;8.70;68.00
48043;DHT22;33988;47.992;8.820;2022-11-20T08:03:23;8.80;68.20
48043;DHT22;33988;47.992;8.820;2022-11-20T08:05:51;8.90;68.70
48043;DHT22;33988;47.992;8.820;2022-11-20T08:08:20;9.10;69.50
48043;DHT22;33988;47.992;8.820;2022-11-20T08:10:49;9.40;70.30
48043;DHT22;33988;47.992;8.820;2022-11-20T08:13:16;9.80;70.70
48043;DHT22;33988;47.992;8.820;2022-11-20T08:16:04;10.20;70.50
48043;DHT22;33988;47.992;8.820;2022-11-20T08:18:31;10.60;69.30
48043;DHT22;33988;47.992;8.820;2022-11-20T08:21:03;10.80;67.90
48043;DHT22;33988;47.992;8.820;2022-11-20T08:23:31;11.00;66.80
48043;DHT22;33988;47.992;8.820;2022-11-20T08:25:58;11.10;66.10
48043;DHT22;33988;47.992;8.820;2022-11-20T08:28:25;11.10;65.40
48043;DHT22;33988;47.992;8.820;2022-11-20T08:30:58;11.10;65.00
48043;DHT22;33988;47.992;8.820;2022-11-20T08:33:26;11.00;64.80
48043;DHT22;33988;47.992;8.820;2022-11-20T08:35:53;11.00;64.80
48043;DHT22;33988;47.992;8.820;2022-11-20T08:38:26;10.90;64.80
48043;DHT22;33988;47.992;8.820;2022-11-20T08:40:59;10.80;64.80
48043;DHT22;33988;47.992;8.820;2022-11-20T08:43:49;10.70;64.80
48043;DHT22;33988;47.992;8.820;2022-11-20T08:46:26;10.70;65.00
48043;DHT22;33988;47.992;8.820;2022-11-20T08:48:54;10.70;65.10
48043;DHT22;33988;47.992;8.820;2022-11-20T08:51:21;10.60;65.10
48043;DHT22;33988;47.992;8.820;2022-11-20T08:53:48;10.60;65.10
48043;DHT22;33988;47.992;8.820;2022-11-20T08:56:16;10.50;65.10
48043;DHT22;33988;47.992;8.820;2022-11-20T08:58:44;10.50;65.30
48043;DHT22;33988;47.992;8.820;2022-11-20T09:01:34;10.50;65.50
48043;DHT22;33988;47.992;8.820;2022-11-20T09:04:04;10.50;65.60
48043;DHT22;33988;47.992;8.820;2022-11-20T09:06:31;10.50;65.80
48043;DHT22;33988;47.992;8.820;2022-11-20T09:08:58;10.50;65.90
48043;DHT22;33988;47.992;8.820;2022-11-20T09:11:32;10.50;65.90
48043;DHT22;33988;47.992;8.820;2022-11-20T09:13:59;10.50;66.00
48043;DHT22;33988;47.992;8.820;2022-11-20T09:16:29;10.60;66.10
48043;DHT22;33988;47.992;8.820;2022-11-20T09:18:56;10.60;66.20
48043;DHT22;33988;47.992;8.820;2022-11-20T09:21:43;10.70;66.10
48043;DHT22;33988;47.992;8.820;2022-11-20T09:24:10;10.70;66.10
48043;DHT22;33988;47.992;8.820;2022-11-20T09:26:42;10.70;65.90
48043;DHT22;33988;47.992;8.820;2022-11-20T09:29:12;10.80;65.80
48043;DHT22;33988;47.992;8.820;2022-11-20T09:31:39;10.80;65.60
48043;DHT22;33988;47.992;8.820;2022-11-20T09:34:09;10.80;65.50
48043;DHT22;33988;47.992;8.820;2022-11-20T09:36:36;10.90;65.40
48043;DHT22;33988;47.992;8.820;2022-11-20T09:39:03;10.90;65.40
48043;DHT22;33988;47.992;8.820;2022-11-20T09:41:54;10.90;65.40
48043;DHT22;33988;47.992;8.820;2022-11-20T09:44:55;10.90;65.20
48043;DHT22;33988;47.992;8.820;2022-11-20T09:50:54;10.90;65.10
48043;DHT22;33988;47.992;8.820;2022-11-20T09:56:21;10.90;65.00
48043;DHT22;33988;47.992;8.820;2022-11-20T09:58:52;10.90;65.10
48043;DHT22;33988;47.992;8.820;2022-11-20T10:01:25;10.80;64.90
48043;DHT22;33988;47.992;8.820;2022-11-20T10:04:18;10.80;64.80
48043;DHT22;33988;47.992;8.820;2022-11-20T10:09:53;10.80;65.00
48043;DHT22;33988;47.992;8.820;2022-11-20T10:12:31;10.80;64.90
48043;DHT22;33988;47.992;8.820;2022-11-20T10:15:12;10.80;64.90
48043;DHT22;33988;47.992;8.820;2022-11-20T10:27:48;10.70;65.20
48043;DHT22;33988;47.992;8.820;2022-11-20T10:30:21;10.70;65.20
48043;DHT22;33988;47.992;8.820;2022-11-20T10:33:39;10.80;65.30
48043;DHT22;33988;47.992;8.820;2022-11-20T10:38:34;10.80;65.10
48043;DHT22;33988;47.992;8.820;2022-11-20T10:41:16;10.80;65.00
48043;DHT22;33988;47.992;8.820;2022-11-20T10:44:08;10.80;65.00
48043;DHT22;33988;47.992;8.820;2022-11-20T10:46:46;10.80;64.80
48043;DHT22;33988;47.992;8.820;2022-11-20T10:49:15;10.80;64.70
48043;DHT22;33988;47.992;8.820;2022-11-20T10:52:09;10.80;64.80
48043;DHT22;33988;47.992;8.820;2022-11-20T11:00:10;10.90;64.90
48043;DHT22;33988;47.992;8.820;2022-11-20T11:02:44;10.90;65.00
48043;DHT22;33988;47.992;8.820;2022-11-20T11:08:10;10.90;64.80
48043;DHT22;33988;47.992;8.820;2022-11-20T11:13:22;10.90;64.80
48043;DHT22;33988;47.992;8.820;2022-11-20T11:15:57;10.90;64.80
48043;DHT22;33988;47.992;8.820;2022-11-20T11:18:32;10.90;64.60
48043;DHT22;33988;47.992;8.820;2022-11-20T11:21:04;10.90;64.50
48043;DHT22;33988;47.992;8.820;2022-11-20T11:23:42;10.90;64.40
48043;DHT22;33988;47.992;8.820;2022-11-20T11:26:21;10.90;64.20
48043;DHT22;33988;47.992;8.820;2022-11-20T11:28:56;10.80;64.30
48043;DHT22;33988;47.992;8.820;2022-11-20T11:31:32;10.80;64.30
48043;DHT22;33988;47.992;8.820;2022-11-20T11:34:10;10.80;64.40
48043;DHT22;33988;47.992;8.820;2022-11-20T11:36:40;10.80;64.40
48043;DHT22;33988;47.992;8.820;2022-11-20T11:39:16;10.90;64.60
48043;DHT22;33988;47.992;8.820;2022-11-20T11:41:45;10.90;64.60
48043;DHT22;33988;47.992;8.820;2022-11-20T11:44:15;10.90;64.50
48043;DHT22;33988;47.992;8.820;2022-11-20T11:47:02;10.90;64.40
48043;DHT22;33988;47.992;8.820;2022-11-20T11:49:30;10.90;64.40
48043;DHT22;33988;47.992;8.820;2022-11-20T11:52:17;10.90;64.40
48043;DHT22;33988;47.992;8.820;2022-11-20T11:54:52;10.90;64.30
48043;DHT22;33988;47.992;8.820;2022-11-20T11:57:39;11.00;64.60
48043;DHT22;33988;47.992;8.820;2022-11-20T12:00:13;11.00;64.50
48043;DHT22;33988;47.992;8.820;2022-11-20T12:11:24;11.20;64.10
48043;DHT22;33988;47.992;8.820;2022-11-20T12:14:00;11.20;64.10
48043;DHT22;33988;47.992;8.820;2022-11-20T12:17:13;11.20;64.10
48043;DHT22;33988;47.992;8.820;2022-11-20T12:19:41;11.20;63.90
48043;DHT22;33988;47.992;8.820;2022-11-20T12:25:02;11.30;63.50
48043;DHT22;33988;47.992;8.820;2022-11-20T12:30:24;11.30;63.40
48043;DHT22;33988;47.992;8.820;2022-11-20T12:57:04;11.60;63.10
48043;DHT22;33988;47.992;8.820;2022-11-20T13:00:14;11.60;63.10
48043;DHT22;33988;47.992;8.820;2022-11-20T13:05:58;11.70;62.80
48043;DHT22;33988;47.992;8.820;2022-11-20T13:08:38;11.70;62.70
48043;DHT22;33988;47.992;8.820;2022-11-20T13:19:14;11.80;62.10
48043;DHT22;33988;47.992;8.820;2022-11-20T13:21:47;11.80;62.20
48043;DHT22;33988;47.992;8.820;2022-11-20T13:29:43;11.60;61.30
48043;DHT22;33988;47.992;8.820;2022-11-20T13:32:17;11.60;61.60
48043;DHT22;33988;47.992;8.820;2022-11-20T13:35:11;11.60;61.60
48043;DHT22;33988;47.992;8.820;2022-11-20T13:37:38;11.50;61.50
48043;DHT22;33988;47.992;8.820;2022-11-20T13:40:23;11.50;61.90
48043;DHT22;33988;47.992;8.820;2022-11-20T13:43:04;11.50;62.00
48043;DHT22;33988;47.992;8.820;2022-11-20T13:45:40;11.50;61.80
48043;DHT22;33988;47.992;8.820;2022-11-20T13:48:25;11.50;61.90
48043;DHT22;33988;47.992;8.820;2022-11-20T14:02:20;11.30;61.70
48043;DHT22;33988;47.992;8.820;2022-11-20T14:04:54;11.30;62.00
48043;DHT22;33988;47.992;8.820;2022-11-20T14:07:44;11.30;62.00
48043;DHT22;33988;47.992;8.820;2022-11-20T14:10:27;11.20;61.80
48043;DHT22;33988;47.992;8.820;2022-11-20T14:12:58;11.30;62.00
48043;DHT22;33988;47.992;8.820;2022-11-20T14:15:39;11.30;62.10
48043;DHT22;33988;47.992;8.820;2022-11-20T14:18:18;11.30;62.20
48043;DHT22;33988;47.992;8.820;2022-11-20T14:20:47;11.30;62.10
48043;DHT22;33988;47.992;8.820;2022-11-20T14:23:24;11.30;61.80
48043;DHT22;33988;47.992;8.820;2022-11-20T14:25:56;11.40;61.30
48043;DHT22;33988;47.992;8.820;2022-11-20T14:28:30;11.40;61.50
48043;DHT22;33988;47.992;8.820;2022-11-20T14:30:59;11.30;61.30
48043;DHT22;33988;47.992;8.820;2022-11-20T14:33:32;11.30;61.20
48043;DHT22;33988;47.992;8.820;2022-11-20T14:36:03;11.30;60.90
48043;DHT22;33988;47.992;8.820;2022-11-20T14:38:34;11.40;61.00
48043;DHT22;33988;47.992;8.820;2022-11-20T14:41:15;11.30;60.80
48043;DHT22;33988;47.992;8.820;2022-11-20T14:43:56;11.30;60.70
48043;DHT22;33988;47.992;8.820;2022-11-20T14:46:24;11.20;60.60
48043;DHT22;33988;47.992;8.820;2022-11-20T14:48:56;11.20;60.80
48043;DHT22;33988;47.992;8.820;2022-11-20T14:51:38;11.20;60.60
48043;DHT22;33988;47.992;8.820;2022-11-20T14:59:24;11.10;60.10
48043;DHT22;33988;47.992;8.820;2022-11-20T15:02:05;11.10;60.30
48043;DHT22;33988;47.992;8.820;2022-11-20T15:04:47;11.10;60.30
48043;DHT22;33988;47.992;8.820;2022-11-20T15:07:28;11.10;60.00
48043;DHT22;33988;47.992;8.820;2022-11-20T15:12:46;11.00;59.90
48043;DHT22;33988;47.992;8.820;2022-11-20T15:18:19;11.00;60.20
48043;DHT22;33988;47.992;8.820;2022-11-20T15:21:00;10.90;60.30
48043;DHT22;33988;47.992;8.820;2022-11-20T15:23:29;11.00;60.30
48043;DHT22;33988;47.992;8.820;2022-11-20T15:25:56;10.90;60.20
48043;DHT22;33988;47.992;8.820;2022-11-20T15:28:32;10.90;60.20
48043;DHT22;33988;47.992;8.820;2022-11-20T15:31:04;10.90;61.10
48043;DHT22;33988;47.992;8.820;2022-11-20T15:33:33;10.90;60.50
48043;DHT22;33988;47.992;8.820;2022-11-20T15:36:02;10.80;60.40
48043;DHT22;33988;47.992;8.820;2022-11-20T15:38:32;10.80;60.40
48043;DHT22;33988;47.992;8.820;2022-11-20T15:41:04;10.80;61.30
48043;DHT22;33988;47.992;8.820;2022-11-20T15:43:31;10.80;60.40
48043;DHT22;33988;47.992;8.820;2022-11-20T15:46:04;10.80;60.40
48043;DHT22;33988;47.992;8.820;2022-11-20T15:48:44;10.70;60.10
48043;DHT22;33988;47.992;8.820;2022-11-20T15:51:31;10.70;59.90
48043;DHT22;33988;47.992;8.820;2022-11-20T15:54:14;10.60;60.10
48043;DHT22;33988;47.992;8.820;2022-11-20T15:56:44;10.60;60.30
48043;DHT22;33988;47.992;8.820;2022-11-20T15:59:11;10.60;60.60
48043;DHT22;33988;47.992;8.820;2022-11-20T16:01:38;10.60;60.60
48043;DHT22;33988;47.992;8.820;2022-11-20T16:04:10;10.50;60.60
48043;DHT22;33988;47.992;8.820;2022-11-20T16:06:42;10.50;60.40
48043;DHT22;33988;47.992;8.820;2022-11-20T16:09:09;10.50;60.60
48043;DHT22;33988;47.992;8.820;2022-11-20T16:11:39;10.50;60.70
48043;DHT22;33988;47.992;8.820;2022-11-20T16:14:10;10.40;60.60
48043;DHT22;33988;47.992;8.820;2022-11-20T16:16:55;10.40;60.50
48043;DHT22;33988;47.992;8.820;2022-11-20T16:19:25;10.40;60.60
48043;DHT22;33988;47.992;8.820;2022-11-20T16:21:52;10.30;60.60
48043;DHT22;33988;47.992;8.820;2022-11-20T16:24:23;10.30;60.70
48043;DHT22;33988;47.992;8.820;2022-11-20T16:26:53;10.10;61.70
48043;DHT22;33988;47.992;8.820;2022-11-20T16:29:20;10.20;60.90
48043;DHT22;33988;47.992;8.820;2022-11-20T16:31:47;10.20;60.80
48043;DHT22;33988;47.992;8.820;2022-11-20T16:34:16;10.20;60.80
48043;DHT22;33988;47.992;8.820;2022-11-20T16:36:45;10.20;60.90
48043;DHT22;33988;47.992;8.820;2022-11-20T16:39:12;10.20;60.90
48043;DHT22;33988;47.992;8.820;2022-11-20T16:41:48;10.20;60.90
48043;DHT22;33988;47.992;8.820;2022-11-20T16:44:17;10.20;61.00
48043;DHT22;33988;47.992;8.820;2022-11-20T16:46:48;10.20;61.10
48043;DHT22;33988;47.992;8.820;2022-11-20T16:49:16;10.20;61.20
48043;DHT22;33988;47.992;8.820;2022-11-20T16:51:43;10.20;61.20
48043;DHT22;33988;47.992;8.820;2022-11-20T16:54:12;10.10;61.30
48043;DHT22;33988;47.992;8.820;2022-11-20T16:56:46;10.10;61.30
48043;DHT22;33988;47.992;8.820;2022-11-20T16:59:17;10.10;61.30
48043;DHT22;33988;47.992;8.820;2022-11-20T17:01:44;10.10;61.50
48043;DHT22;33988;47.992;8.820;2022-11-20T17:04:17;10.10;61.50
48043;DHT22;33988;47.992;8.820;2022-11-20T17:06:44;10.00;61.50
48043;DHT22;33988;47.992;8.820;2022-11-20T17:09:12;10.00;61.50
48043;DHT22;33988;47.992;8.820;2022-11-20T17:11:44;10.00;61.60
48043;DHT22;33988;47.992;8.820;2022-11-20T17:14:13;10.00;61.60
48043;DHT22;33988;47.992;8.820;2022-11-20T17:16:40;9.90;61.50
48043;DHT22;33988;47.992;8.820;2022-11-20T17:19:08;9.90;61.50
48043;DHT22;33988;47.992;8.820;2022-11-20T17:21:35;9.90;61.60
48043;DHT22;33988;47.992;8.820;2022-11-20T17:24:08;9.90;61.70
48043;DHT22;33988;47.992;8.820;2022-11-20T17:26:47;9.90;61.90
48043;DHT22;33988;47.992;8.820;2022-11-20T17:29:18;9.80;61.90
48043;DHT22;33988;47.992;8.820;2022-11-20T17:31:50;9.90;62.00
48043;DHT22;33988;47.992;8.820;2022-11-20T17:34:17;9.90;62.00
48043;DHT22;33988;47.992;8.820;2022-11-20T17:36:44;9.80;62.00
48043;DHT22;33988;47.992;8.820;2022-11-20T17:39:13;9.80;62.10
48043;DHT22;33988;47.992;8.820;2022-11-20T17:41:45;9.90;62.10
48043;DHT22;33988;47.992;8.820;2022-11-20T17:44:32;9.90;62.10
48043;DHT22;33988;47.992;8.820;2022-11-20T17:46:59;9.90;62.10
48043;DHT22;33988;47.992;8.820;2022-11-20T17:49:28;9.90;62.10
48043;DHT22;33988;47.992;8.820;2022-11-20T17:51:55;9.90;62.10
48043;DHT22;33988;47.992;8.820;2022-11-20T17:54:27;9.90;62.10
48043;DHT22;33988;47.992;8.820;2022-11-20T17:56:54;9.90;62.00
48043;DHT22;33988;47.992;8.820;2022-11-20T17:59:42;9.90;62.10
48043;DHT22;33988;47.992;8.820;2022-11-20T18:02:09;9.90;62.00
48043;DHT22;33988;47.992;8.820;2022-11-20T18:04:38;9.90;62.00
48043;DHT22;33988;47.992;8.820;2022-11-20T18:07:07;9.90;62.00
48043;DHT22;33988;47.992;8.820;2022-11-20T18:09:34;9.90;62.10
48043;DHT22;33988;47.992;8.820;2022-11-20T18:12:04;9.90;62.10